[Jeden Donnerstag | 18:00z - 20:00z| EDDS] Stuttgart Thursday

Zu Eventkalender hinzugefügt: 53 Daten

RG Frankfurt

RG Frankfurt - Leitung
Bereitet euch auf den Stuttgart Donnerstag vor! Egal ob Rasenmäher oder Düsentriebwerk, IFR oder VFR, solange es fliegen kann ist es hier willkommen. Von 20:00lcl bis 22:00lcl lotst euch ein Mix aus alten Hasen und neuen Trainees. Fliegt von Stuttgart aus über die schwäbische Alb, zum Bodensee oder den Neckar entlang bis zum Rhein. Als Destination für eure IFR-Flüge bietet sich die RG Bremen mit dem Hamburg Thursday an, wo ihr auf dem Weg fast vollständige ATC-Abdeckung erwarten dürft.


Prepare for Stuttgart Thursday! No matter whether you are flying a small plane or a jet, IFR or VFR, if it flies it is welcome here. From 20:00lcl to 22:00lcl (18:00z to 20:00z in the summer and 19:00z to 21:00z in the winter) there will be a mix of old stagers and new trainees controlling for you. Fly from Stuttgart over the Swabian Jura, to Lake Constance or follow the Neckar to the Rhine. As destination for your IFR-Flights we would recommend Hamburg, where RG Bremen is performing Hamburg Thursday and you can almost be sure of full ATC coverage.


Charts: https://vatsim-germany.org/pilots/aerodromes/EDDS
 
Zuletzt bearbeitet von einem Moderator:

Cedric Mohler

1452943
RG Frankfurt - NAV
RG Frankfurt - Mentor
Stuttgart Tag nach Mittwoch steht wieder an!
EDDS 171100Z 1712/1812 18004KT 9999 FEW045
TEMPO 1717/1721 4000 RA PROB40
Hoffen wir auf die 60% Chance, dass es nicht regnen kommt und wir alle nochmal ein paar schöne Flüge genießen können!
 

Cedric Mohler

1452943
RG Frankfurt - NAV
RG Frankfurt - Mentor
EDDF 240550Z 2406/2512 21006KT 4000 BR BKN008
TEMPO 2406/2409 VRB03KT 1200 BCFG BKN002
BECMG 2408/2411 9999 SCT012
TEMPO 2410/2412 BKN012
BECMG 2421/2423 BKN025
Inzwischen ist auch der Herbst in Stuttgart angekommen. Tolles Wetter können wir also leider nicht bieten, aber dafür ist Stuttgart heute natürlich wieder für euch bereit!
 

Cedric Mohler

1452943
RG Frankfurt - NAV
RG Frankfurt - Mentor
EDDS 141100Z 1412/1512 08004KT CAVOK BECMG 1506/1509 21005KT
Mit ein wenig Ostwind ist heute damit zu rechnen im Anflug die Terrain Warnung zu hören, für die Stuttgart doch fast schon bekannt ist. Es ist wieder Zeit für Minors on Stage, springt also in eure Airliner und fliegt nach Genf!
 
Zuletzt bearbeitet:

Cedric Mohler

1452943
RG Frankfurt - NAV
RG Frankfurt - Mentor
EDDS 280500Z 2806/2906 20008KT 9999 SCT040 TEMPO 2806/2810 22015G25KT SHRA BKN030TCU
BECMG 2810/2812 22015G25KT TEMPO 2810/2906 22020G30KT SHRA BKN020TCU BECMG 2818/2821 22010KT
Heute ist wieder Stuttgart Donnerstag! @Michael Papen zeigt heute bei seinem Tower-CPT, dass er Stuttgart souverän im Griff hat. Für alle Piloten halten wir stürmisches Wetter am Flughafen bereit, das euch hoffentlich nicht davon abhält heute zu fliegen und euch eine spannende Herausforderung bietet.
 
Hallo,

vielen Dank für euren netten Service in Stuttgart! Für mich als Neuling (war heute der 4. Flug auf Vatsim) ist es immer angenehm, wenn man freundliche Lotsen am anderen Ende der Leitung hat.
Sorry bitte nur an den Lotsen von Langen Radar, auf dessen "contact me" ich nicht sofort reagiert habe, weil ich gedanklich schon beim Approach-Lotsen war. Mit solchen kleinen "Stresssituationen" muss ich noch umzugehen lernen...

LG und schöne Weihnachten schonmal im voraus, Uli
 

Jan Hergeth

1419731
RG Frankfurt - Leitung
RG Frankfurt - Mentor
Heute ist wieder Stuttgart Donnerstag und wir freuen uns auf euren Besuch :)
Das Wetter bleibt freundlich, nur in den späten Abendstunden wird es spannend!
EDDS 161100Z 1612/1712 VRB03KT CAVOK TEMPO 1621/1706 3000 BR PROB30 TEMPO 1623/1706 0400 FG VV001
 

Jan Hergeth

1419731
RG Frankfurt - Leitung
RG Frankfurt - Mentor
Auch heute laden wir nach Stuttgart ein. Jonas Hartung stellt außerdem auf dem APP unter Beweis, dass er seine Luftraum im Griff hat, also unterstützt ihn mit einem Flug von oder nach EDDS! :)
 

Jan Hergeth

1419731
RG Frankfurt - Leitung
RG Frankfurt - Mentor
Heute Abend laden wir wieder zum Stuttgart Donnerstag ein! Das Wetter verspricht herausfordernde Anflüge!
EDDS 301100Z 3012/3112 19007KT 9999 FEW020 TEMPO 3018/3021 21015G25KT 4000 RADZ PROB30 TEMPO 3021/3109 24015G25KT 2000 -DZRA BKN012
 

Heinz Andersen

1137111
RG München - Leitung
RG München - NAV
RG München - Mentor
ATD - Prüfer
Für Felix hat es heute leider nicht gereicht, aber mit ein bisschen mehr Verkehr und Übung stehen die Chancen nächstes Mal bestimmt besser.
 
Oben